sensor_id;sensor_type;location;lat;lon;timestamp;temperature;humidity
14884;DHT22;7534;50.762;7.000;2023-06-22T00:02:15;22.90;99.90
14884;DHT22;7534;50.762;7.000;2023-06-22T00:04:41;22.90;99.90
14884;DHT22;7534;50.762;7.000;2023-06-22T00:07:06;22.90;99.90
14884;DHT22;7534;50.762;7.000;2023-06-22T00:09:33;22.90;99.90
14884;DHT22;7534;50.762;7.000;2023-06-22T00:11:59;22.90;99.90
14884;DHT22;7534;50.762;7.000;2023-06-22T00:14:25;22.80;99.90
14884;DHT22;7534;50.762;7.000;2023-06-22T00:16:51;22.80;99.90
14884;DHT22;7534;50.762;7.000;2023-06-22T00:19:21;22.80;99.90
14884;DHT22;7534;50.762;7.000;2023-06-22T00:21:47;22.80;99.90
14884;DHT22;7534;50.762;7.000;2023-06-22T00:24:21;22.80;99.90
14884;DHT22;7534;50.762;7.000;2023-06-22T00:26:50;22.80;99.90
14884;DHT22;7534;50.762;7.000;2023-06-22T00:29:16;22.80;99.90
14884;DHT22;7534;50.762;7.000;2023-06-22T00:31:42;22.80;99.90
14884;DHT22;7534;50.762;7.000;2023-06-22T00:34:08;22.80;99.90
14884;DHT22;7534;50.762;7.000;2023-06-22T00:36:34;22.80;99.90
14884;DHT22;7534;50.762;7.000;2023-06-22T00:39:01;22.80;99.90
14884;DHT22;7534;50.762;7.000;2023-06-22T00:41:27;22.80;99.90
14884;DHT22;7534;50.762;7.000;2023-06-22T00:43:56;22.80;99.90
14884;DHT22;7534;50.762;7.000;2023-06-22T00:46:22;22.80;99.90
14884;DHT22;7534;50.762;7.000;2023-06-22T00:48:49;22.80;99.90
14884;DHT22;7534;50.762;7.000;2023-06-22T00:51:17;22.70;99.90
14884;DHT22;7534;50.762;7.000;2023-06-22T00:53:43;22.70;99.90
14884;DHT22;7534;50.762;7.000;2023-06-22T00:56:09;22.70;99.90
14884;DHT22;7534;50.762;7.000;2023-06-22T00:58:37;22.70;99.90
14884;DHT22;7534;50.762;7.000;2023-06-22T01:01:06;22.70;99.90
14884;DHT22;7534;50.762;7.000;2023-06-22T01:03:32;22.70;99.90
14884;DHT22;7534;50.762;7.000;2023-06-22T01:06:03;22.70;99.90
14884;DHT22;7534;50.762;7.000;2023-06-22T01:08:56;22.70;99.90
14884;DHT22;7534;50.762;7.000;2023-06-22T01:11:38;22.70;99.90
14884;DHT22;7534;50.762;7.000;2023-06-22T01:14:26;22.70;99.90
14884;DHT22;7534;50.762;7.000;2023-06-22T01:16:59;22.70;99.90
14884;DHT22;7534;50.762;7.000;2023-06-22T01:22:02;22.60;99.90
14884;DHT22;7534;50.762;7.000;2023-06-22T01:24:51;22.60;99.90
14884;DHT22;7534;50.762;7.000;2023-06-22T01:27:32;22.70;99.90
14884;DHT22;7534;50.762;7.000;2023-06-22T01:30:11;22.70;99.90
14884;DHT22;7534;50.762;7.000;2023-06-22T01:32:40;22.70;99.90
14884;DHT22;7534;50.762;7.000;2023-06-22T01:35:08;22.70;99.90
14884;DHT22;7534;50.762;7.000;2023-06-22T01:37:36;22.60;99.90
14884;DHT22;7534;50.762;7.000;2023-06-22T01:40:05;22.60;99.90
14884;DHT22;7534;50.762;7.000;2023-06-22T01:42:33;22.60;99.90
14884;DHT22;7534;50.762;7.000;2023-06-22T01:45:02;22.50;99.90
14884;DHT22;7534;50.762;7.000;2023-06-22T01:47:28;22.50;99.90
14884;DHT22;7534;50.762;7.000;2023-06-22T01:49:54;22.50;99.90
14884;DHT22;7534;50.762;7.000;2023-06-22T01:52:20;22.50;99.90
14884;DHT22;7534;50.762;7.000;2023-06-22T01:54:46;22.50;99.90
14884;DHT22;7534;50.762;7.000;2023-06-22T01:57:14;22.50;99.90
14884;DHT22;7534;50.762;7.000;2023-06-22T02:00:04;22.50;99.90
14884;DHT22;7534;50.762;7.000;2023-06-22T02:02:50;22.50;99.90
14884;DHT22;7534;50.762;7.000;2023-06-22T02:05:24;22.40;99.90
14884;DHT22;7534;50.762;7.000;2023-06-22T02:08:10;22.40;99.90
14884;DHT22;7534;50.762;7.000;2023-06-22T02:10:42;22.30;99.90
14884;DHT22;7534;50.762;7.000;2023-06-22T02:13:11;22.30;99.90
14884;DHT22;7534;50.762;7.000;2023-06-22T02:15:38;22.30;99.90
14884;DHT22;7534;50.762;7.000;2023-06-22T02:18:04;22.30;99.90
14884;DHT22;7534;50.762;7.000;2023-06-22T02:20:30;22.40;99.90
14884;DHT22;7534;50.762;7.000;2023-06-22T02:22:56;22.30;99.90
14884;DHT22;7534;50.762;7.000;2023-06-22T02:25:22;22.30;99.90
14884;DHT22;7534;50.762;7.000;2023-06-22T02:27:47;22.30;99.90
14884;DHT22;7534;50.762;7.000;2023-06-22T02:30:13;22.30;99.90
14884;DHT22;7534;50.762;7.000;2023-06-22T02:32:41;22.30;99.90
14884;DHT22;7534;50.762;7.000;2023-06-22T02:35:08;22.30;99.90
14884;DHT22;7534;50.762;7.000;2023-06-22T02:37:38;22.30;99.90
14884;DHT22;7534;50.762;7.000;2023-06-22T02:40:07;22.30;99.90
14884;DHT22;7534;50.762;7.000;2023-06-22T02:42:38;22.40;99.90
14884;DHT22;7534;50.762;7.000;2023-06-22T02:45:05;22.30;99.90
14884;DHT22;7534;50.762;7.000;2023-06-22T02:47:31;22.30;99.90
14884;DHT22;7534;50.762;7.000;2023-06-22T02:49:57;22.30;99.90
14884;DHT22;7534;50.762;7.000;2023-06-22T02:52:23;22.30;99.90
14884;DHT22;7534;50.762;7.000;2023-06-22T02:54:48;22.30;99.90
14884;DHT22;7534;50.762;7.000;2023-06-22T02:57:14;22.30;99.90
14884;DHT22;7534;50.762;7.000;2023-06-22T02:59:43;22.40;99.90
14884;DHT22;7534;50.762;7.000;2023-06-22T03:02:09;22.40;99.90
14884;DHT22;7534;50.762;7.000;2023-06-22T03:04:37;22.40;99.90
14884;DHT22;7534;50.762;7.000;2023-06-22T03:07:03;22.40;99.90
14884;DHT22;7534;50.762;7.000;2023-06-22T03:09:29;22.40;99.90
14884;DHT22;7534;50.762;7.000;2023-06-22T03:11:55;22.30;99.90
14884;DHT22;7534;50.762;7.000;2023-06-22T03:14:21;22.10;99.90
14884;DHT22;7534;50.762;7.000;2023-06-22T03:16:46;21.90;99.90
14884;DHT22;7534;50.762;7.000;2023-06-22T03:19:12;21.90;99.90
14884;DHT22;7534;50.762;7.000;2023-06-22T03:21:39;22.00;99.90
14884;DHT22;7534;50.762;7.000;2023-06-22T03:24:06;22.00;99.90
14884;DHT22;7534;50.762;7.000;2023-06-22T03:26:34;21.80;99.90
14884;DHT22;7534;50.762;7.000;2023-06-22T03:29:00;21.90;99.90
14884;DHT22;7534;50.762;7.000;2023-06-22T03:31:27;21.80;99.90
14884;DHT22;7534;50.762;7.000;2023-06-22T03:33:52;21.80;99.90
14884;DHT22;7534;50.762;7.000;2023-06-22T03:36:18;21.70;99.90
14884;DHT22;7534;50.762;7.000;2023-06-22T03:38:48;21.90;99.90
14884;DHT22;7534;50.762;7.000;2023-06-22T03:41:15;21.90;99.90
14884;DHT22;7534;50.762;7.000;2023-06-22T03:43:41;22.00;99.90
14884;DHT22;7534;50.762;7.000;2023-06-22T03:46:07;22.10;99.90
14884;DHT22;7534;50.762;7.000;2023-06-22T03:48:33;22.00;99.90
14884;DHT22;7534;50.762;7.000;2023-06-22T03:50:59;22.10;99.90
14884;DHT22;7534;50.762;7.000;2023-06-22T03:53:26;22.10;99.90
14884;DHT22;7534;50.762;7.000;2023-06-22T03:55:52;22.10;99.90
14884;DHT22;7534;50.762;7.000;2023-06-22T03:58:20;22.20;99.90
14884;DHT22;7534;50.762;7.000;2023-06-22T04:00:49;22.20;99.90
14884;DHT22;7534;50.762;7.000;2023-06-22T04:03:17;22.10;99.90
14884;DHT22;7534;50.762;7.000;2023-06-22T04:05:45;22.20;99.90
14884;DHT22;7534;50.762;7.000;2023-06-22T04:08:13;22.30;99.90
14884;DHT22;7534;50.762;7.000;2023-06-22T04:10:39;22.50;99.90
14884;DHT22;7534;50.762;7.000;2023-06-22T04:13:04;22.50;99.90
14884;DHT22;7534;50.762;7.000;2023-06-22T04:15:30;22.60;99.90
14884;DHT22;7534;50.762;7.000;2023-06-22T04:17:56;22.70;99.90
14884;DHT22;7534;50.762;7.000;2023-06-22T04:20:22;22.60;99.90
14884;DHT22;7534;50.762;7.000;2023-06-22T04:22:54;22.60;99.90
14884;DHT22;7534;50.762;7.000;2023-06-22T04:25:20;22.60;99.90
14884;DHT22;7534;50.762;7.000;2023-06-22T04:27:46;22.60;99.90
14884;DHT22;7534;50.762;7.000;2023-06-22T04:30:12;22.60;99.90
14884;DHT22;7534;50.762;7.000;2023-06-22T04:33:05;22.70;99.90
14884;DHT22;7534;50.762;7.000;2023-06-22T04:35:31;22.70;99.90
14884;DHT22;7534;50.762;7.000;2023-06-22T04:37:59;22.60;99.90
14884;DHT22;7534;50.762;7.000;2023-06-22T04:40:25;22.50;99.90
14884;DHT22;7534;50.762;7.000;2023-06-22T04:42:51;22.60;99.90
14884;DHT22;7534;50.762;7.000;2023-06-22T04:45:20;22.60;99.90
14884;DHT22;7534;50.762;7.000;2023-06-22T04:47:46;22.60;99.90
14884;DHT22;7534;50.762;7.000;2023-06-22T04:50:12;22.60;99.90
14884;DHT22;7534;50.762;7.000;2023-06-22T04:52:38;22.50;99.90
14884;DHT22;7534;50.762;7.000;2023-06-22T04:55:04;22.50;99.90
14884;DHT22;7534;50.762;7.000;2023-06-22T04:57:31;22.50;99.90
14884;DHT22;7534;50.762;7.000;2023-06-22T05:00:00;22.50;99.90
14884;DHT22;7534;50.762;7.000;2023-06-22T05:02:52;22.60;99.90
14884;DHT22;7534;50.762;7.000;2023-06-22T05:05:18;22.80;99.90
14884;DHT22;7534;50.762;7.000;2023-06-22T05:07:45;23.00;99.90
14884;DHT22;7534;50.762;7.000;2023-06-22T05:10:14;23.00;99.90
14884;DHT22;7534;50.762;7.000;2023-06-22T05:12:41;23.30;99.90
14884;DHT22;7534;50.762;7.000;2023-06-22T05:15:08;23.50;99.90
14884;DHT22;7534;50.762;7.000;2023-06-22T05:17:35;23.70;99.90
14884;DHT22;7534;50.762;7.000;2023-06-22T05:20:02;24.00;99.90
14884;DHT22;7534;50.762;7.000;2023-06-22T05:22:31;24.50;99.90
14884;DHT22;7534;50.762;7.000;2023-06-22T05:24:57;25.00;99.90
14884;DHT22;7534;50.762;7.000;2023-06-22T05:27:23;25.50;99.30
14884;DHT22;7534;50.762;7.000;2023-06-22T05:29:49;25.90;98.20
14884;DHT22;7534;50.762;7.000;2023-06-22T05:32:14;27.30;96.50
14884;DHT22;7534;50.762;7.000;2023-06-22T05:34:40;29.20;93.50
14884;DHT22;7534;50.762;7.000;2023-06-22T05:37:06;30.60;90.70
14884;DHT22;7534;50.762;7.000;2023-06-22T05:39:34;31.80;86.70
14884;DHT22;7534;50.762;7.000;2023-06-22T05:42:04;32.20;82.20
14884;DHT22;7534;50.762;7.000;2023-06-22T05:44:31;31.50;81.60
14884;DHT22;7534;50.762;7.000;2023-06-22T05:46:56;31.00;83.30
14884;DHT22;7534;50.762;7.000;2023-06-22T05:49:22;30.50;85.00
14884;DHT22;7534;50.762;7.000;2023-06-22T05:51:49;29.90;86.80
14884;DHT22;7534;50.762;7.000;2023-06-22T05:54:15;29.50;88.90
14884;DHT22;7534;50.762;7.000;2023-06-22T05:56:43;29.10;90.40
14884;DHT22;7534;50.762;7.000;2023-06-22T05:59:08;28.80;90.80
14884;DHT22;7534;50.762;7.000;2023-06-22T06:01:34;28.60;91.30
14884;DHT22;7534;50.762;7.000;2023-06-22T06:04:02;28.20;91.90
14884;DHT22;7534;50.762;7.000;2023-06-22T06:06:33;28.10;92.20
14884;DHT22;7534;50.762;7.000;2023-06-22T06:09:00;28.10;92.40
14884;DHT22;7534;50.762;7.000;2023-06-22T06:11:26;28.10;92.30
14884;DHT22;7534;50.762;7.000;2023-06-22T06:13:52;28.10;92.10
14884;DHT22;7534;50.762;7.000;2023-06-22T06:16:18;28.20;92.30
14884;DHT22;7534;50.762;7.000;2023-06-22T06:18:43;28.20;92.50
14884;DHT22;7534;50.762;7.000;2023-06-22T06:21:09;28.10;92.60
14884;DHT22;7534;50.762;7.000;2023-06-22T06:23:35;28.10;92.60
14884;DHT22;7534;50.762;7.000;2023-06-22T06:26:00;27.90;92.50
14884;DHT22;7534;50.762;7.000;2023-06-22T06:28:26;27.70;92.90
14884;DHT22;7534;50.762;7.000;2023-06-22T06:30:53;27.50;93.30
14884;DHT22;7534;50.762;7.000;2023-06-22T06:33:19;27.50;93.80
14884;DHT22;7534;50.762;7.000;2023-06-22T06:35:46;27.30;93.90
14884;DHT22;7534;50.762;7.000;2023-06-22T06:38:12;26.70;94.50
14884;DHT22;7534;50.762;7.000;2023-06-22T06:40:37;26.60;95.10
14884;DHT22;7534;50.762;7.000;2023-06-22T06:43:03;26.60;95.40
14884;DHT22;7534;50.762;7.000;2023-06-22T06:45:29;26.60;95.40
14884;DHT22;7534;50.762;7.000;2023-06-22T06:47:56;26.50;95.50
14884;DHT22;7534;50.762;7.000;2023-06-22T06:50:22;26.60;95.40
14884;DHT22;7534;50.762;7.000;2023-06-22T06:52:48;26.60;95.70
14884;DHT22;7534;50.762;7.000;2023-06-22T06:55:15;26.90;95.50
14884;DHT22;7534;50.762;7.000;2023-06-22T06:57:41;27.30;94.70
14884;DHT22;7534;50.762;7.000;2023-06-22T07:00:11;27.50;93.90
14884;DHT22;7534;50.762;7.000;2023-06-22T07:02:44;28.70;92.80
14884;DHT22;7534;50.762;7.000;2023-06-22T07:05:11;29.40;91.40
14884;DHT22;7534;50.762;7.000;2023-06-22T07:07:38;29.60;90.50
14884;DHT22;7534;50.762;7.000;2023-06-22T07:10:05;29.40;90.70
14884;DHT22;7534;50.762;7.000;2023-06-22T07:12:31;29.60;90.60
14884;DHT22;7534;50.762;7.000;2023-06-22T07:15:04;29.90;89.20
14884;DHT22;7534;50.762;7.000;2023-06-22T07:17:35;30.00;88.80
14884;DHT22;7534;50.762;7.000;2023-06-22T07:20:02;30.20;88.30
14884;DHT22;7534;50.762;7.000;2023-06-22T07:22:33;30.10;88.20
14884;DHT22;7534;50.762;7.000;2023-06-22T07:24:59;30.00;88.40
14884;DHT22;7534;50.762;7.000;2023-06-22T07:27:25;30.00;89.70
14884;DHT22;7534;50.762;7.000;2023-06-22T07:29:51;29.90;89.20
14884;DHT22;7534;50.762;7.000;2023-06-22T07:32:17;30.20;89.20
14884;DHT22;7534;50.762;7.000;2023-06-22T07:34:43;30.40;88.90
14884;DHT22;7534;50.762;7.000;2023-06-22T07:37:09;30.80;87.20
14884;DHT22;7534;50.762;7.000;2023-06-22T07:39:35;31.50;84.90
14884;DHT22;7534;50.762;7.000;2023-06-22T07:42:00;31.70;82.80
14884;DHT22;7534;50.762;7.000;2023-06-22T07:44:26;31.80;81.90
14884;DHT22;7534;50.762;7.000;2023-06-22T07:46:52;33.30;77.00
14884;DHT22;7534;50.762;7.000;2023-06-22T07:49:18;33.10;77.80
14884;DHT22;7534;50.762;7.000;2023-06-22T07:51:44;33.30;77.60
14884;DHT22;7534;50.762;7.000;2023-06-22T07:54:10;34.70;73.20
14884;DHT22;7534;50.762;7.000;2023-06-22T07:56:37;36.00;69.50
14884;DHT22;7534;50.762;7.000;2023-06-22T07:59:03;37.70;62.60
14884;DHT22;7534;50.762;7.000;2023-06-22T08:01:29;38.30;57.10
14884;DHT22;7534;50.762;7.000;2023-06-22T08:03:55;38.30;56.10
14884;DHT22;7534;50.762;7.000;2023-06-22T08:06:21;39.10;53.90
14884;DHT22;7534;50.762;7.000;2023-06-22T08:08:46;37.70;55.80
14884;DHT22;7534;50.762;7.000;2023-06-22T08:11:18;37.10;57.70
14884;DHT22;7534;50.762;7.000;2023-06-22T08:13:44;37.90;56.20
14884;DHT22;7534;50.762;7.000;2023-06-22T08:16:09;37.80;55.00
14884;DHT22;7534;50.762;7.000;2023-06-22T08:18:35;38.00;55.00
14884;DHT22;7534;50.762;7.000;2023-06-22T08:21:01;38.80;53.20
14884;DHT22;7534;50.762;7.000;2023-06-22T08:23:27;38.30;54.30
14884;DHT22;7534;50.762;7.000;2023-06-22T08:25:53;38.20;53.90
14884;DHT22;7534;50.762;7.000;2023-06-22T08:28:18;38.00;54.10
14884;DHT22;7534;50.762;7.000;2023-06-22T08:30:44;37.80;55.40
14884;DHT22;7534;50.762;7.000;2023-06-22T08:33:10;38.30;53.50
14884;DHT22;7534;50.762;7.000;2023-06-22T08:35:36;36.80;55.70
14884;DHT22;7534;50.762;7.000;2023-06-22T08:38:01;36.20;57.80
14884;DHT22;7534;50.762;7.000;2023-06-22T08:40:27;36.40;57.80
14884;DHT22;7534;50.762;7.000;2023-06-22T08:42:54;36.10;58.20
14884;DHT22;7534;50.762;7.000;2023-06-22T08:45:20;35.90;59.60
14884;DHT22;7534;50.762;7.000;2023-06-22T08:47:46;35.50;60.40
14884;DHT22;7534;50.762;7.000;2023-06-22T08:50:12;34.70;63.70
14884;DHT22;7534;50.762;7.000;2023-06-22T08:52:39;34.20;65.40
14884;DHT22;7534;50.762;7.000;2023-06-22T08:55:09;33.40;68.50
14884;DHT22;7534;50.762;7.000;2023-06-22T08:57:37;33.20;70.70
14884;DHT22;7534;50.762;7.000;2023-06-22T09:00:06;33.00;71.90
14884;DHT22;7534;50.762;7.000;2023-06-22T09:02:43;32.50;73.50
14884;DHT22;7534;50.762;7.000;2023-06-22T09:05:10;31.90;77.50
14884;DHT22;7534;50.762;7.000;2023-06-22T09:07:35;31.70;78.10
14884;DHT22;7534;50.762;7.000;2023-06-22T09:10:01;31.70;78.90
14884;DHT22;7534;50.762;7.000;2023-06-22T09:12:30;31.80;78.60
14884;DHT22;7534;50.762;7.000;2023-06-22T09:14:58;31.90;78.70
14884;DHT22;7534;50.762;7.000;2023-06-22T09:17:28;31.80;79.20
14884;DHT22;7534;50.762;7.000;2023-06-22T09:19:54;32.10;79.30
14884;DHT22;7534;50.762;7.000;2023-06-22T09:22:20;31.90;79.50
14884;DHT22;7534;50.762;7.000;2023-06-22T09:24:46;32.20;78.60
14884;DHT22;7534;50.762;7.000;2023-06-22T09:27:11;32.60;77.70
14884;DHT22;7534;50.762;7.000;2023-06-22T09:29:37;32.60;77.10
14884;DHT22;7534;50.762;7.000;2023-06-22T09:32:03;33.00;76.50
14884;DHT22;7534;50.762;7.000;2023-06-22T09:34:29;33.40;75.00
14884;DHT22;7534;50.762;7.000;2023-06-22T09:36:56;33.40;74.20
14884;DHT22;7534;50.762;7.000;2023-06-22T09:39:22;33.60;73.80
14884;DHT22;7534;50.762;7.000;2023-06-22T09:41:48;33.50;74.60
14884;DHT22;7534;50.762;7.000;2023-06-22T09:44:14;33.80;73.90
14884;DHT22;7534;50.762;7.000;2023-06-22T09:46:39;33.50;73.20
14884;DHT22;7534;50.762;7.000;2023-06-22T09:49:05;32.90;74.60
14884;DHT22;7534;50.762;7.000;2023-06-22T09:51:31;32.20;76.80
14884;DHT22;7534;50.762;7.000;2023-06-22T09:53:56;31.80;78.40
14884;DHT22;7534;50.762;7.000;2023-06-22T09:56:23;31.60;79.10
14884;DHT22;7534;50.762;7.000;2023-06-22T09:58:49;30.80;82.60
14884;DHT22;7534;50.762;7.000;2023-06-22T10:01:18;30.30;84.50
14884;DHT22;7534;50.762;7.000;2023-06-22T10:03:44;30.00;85.40
14884;DHT22;7534;50.762;7.000;2023-06-22T10:06:09;29.70;86.90
14884;DHT22;7534;50.762;7.000;2023-06-22T10:08:36;29.60;89.70
14884;DHT22;7534;50.762;7.000;2023-06-22T10:11:02;29.40;91.50
14884;DHT22;7534;50.762;7.000;2023-06-22T10:13:29;28.80;92.10
14884;DHT22;7534;50.762;7.000;2023-06-22T10:15:54;28.10;94.00
14884;DHT22;7534;50.762;7.000;2023-06-22T10:18:20;27.70;96.20
14884;DHT22;7534;50.762;7.000;2023-06-22T10:20:50;27.40;97.30
14884;DHT22;7534;50.762;7.000;2023-06-22T10:23:17;27.10;99.10
14884;DHT22;7534;50.762;7.000;2023-06-22T10:25:46;26.80;99.70
14884;DHT22;7534;50.762;7.000;2023-06-22T10:28:12;26.70;99.90
14884;DHT22;7534;50.762;7.000;2023-06-22T10:30:42;26.70;99.90
14884;DHT22;7534;50.762;7.000;2023-06-22T10:33:09;26.60;99.90
14884;DHT22;7534;50.762;7.000;2023-06-22T10:35:36;26.50;99.90
14884;DHT22;7534;50.762;7.000;2023-06-22T10:38:05;26.30;99.90
14884;DHT22;7534;50.762;7.000;2023-06-22T10:40:31;26.10;99.90
14884;DHT22;7534;50.762;7.000;2023-06-22T10:42:57;25.80;99.90
14884;DHT22;7534;50.762;7.000;2023-06-22T10:45:23;25.50;99.90
14884;DHT22;7534;50.762;7.000;2023-06-22T10:47:48;25.20;99.90
14884;DHT22;7534;50.762;7.000;2023-06-22T10:50:15;25.00;99.90
14884;DHT22;7534;50.762;7.000;2023-06-22T10:52:41;24.70;99.90
14884;DHT22;7534;50.762;7.000;2023-06-22T10:55:08;24.60;99.90
14884;DHT22;7534;50.762;7.000;2023-06-22T10:57:34;24.20;99.90
14884;DHT22;7534;50.762;7.000;2023-06-22T11:00:02;23.70;99.90
14884;DHT22;7534;50.762;7.000;2023-06-22T11:02:31;23.60;99.90
14884;DHT22;7534;50.762;7.000;2023-06-22T11:04:58;23.30;99.90
14884;DHT22;7534;50.762;7.000;2023-06-22T11:07:26;23.20;99.90
14884;DHT22;7534;50.762;7.000;2023-06-22T11:09:54;23.30;99.90
14884;DHT22;7534;50.762;7.000;2023-06-22T11:12:20;23.30;99.90
14884;DHT22;7534;50.762;7.000;2023-06-22T11:14:46;23.40;99.90
14884;DHT22;7534;50.762;7.000;2023-06-22T11:17:14;23.50;99.90
14884;DHT22;7534;50.762;7.000;2023-06-22T11:19:39;23.70;99.90
14884;DHT22;7534;50.762;7.000;2023-06-22T11:22:05;23.80;99.90
14884;DHT22;7534;50.762;7.000;2023-06-22T11:24:31;23.90;99.90
14884;DHT22;7534;50.762;7.000;2023-06-22T11:27:00;23.80;99.90
14884;DHT22;7534;50.762;7.000;2023-06-22T11:29:25;23.70;99.90
14884;DHT22;7534;50.762;7.000;2023-06-22T11:31:51;23.60;99.90
14884;DHT22;7534;50.762;7.000;2023-06-22T11:34:17;23.70;99.90
14884;DHT22;7534;50.762;7.000;2023-06-22T11:36:44;23.70;99.90
14884;DHT22;7534;50.762;7.000;2023-06-22T11:39:10;24.00;99.90
14884;DHT22;7534;50.762;7.000;2023-06-22T11:41:37;24.60;99.90
14884;DHT22;7534;50.762;7.000;2023-06-22T11:44:03;25.30;99.90
14884;DHT22;7534;50.762;7.000;2023-06-22T11:46:29;26.10;99.90
14884;DHT22;7534;50.762;7.000;2023-06-22T11:48:57;26.90;99.90
14884;DHT22;7534;50.762;7.000;2023-06-22T11:51:22;26.70;99.90
14884;DHT22;7534;50.762;7.000;2023-06-22T11:53:49;26.90;99.90
14884;DHT22;7534;50.762;7.000;2023-06-22T11:56:16;27.20;99.90
14884;DHT22;7534;50.762;7.000;2023-06-22T11:58:42;27.10;99.90
14884;DHT22;7534;50.762;7.000;2023-06-22T12:01:07;26.90;99.90
14884;DHT22;7534;50.762;7.000;2023-06-22T12:03:33;26.90;99.90
14884;DHT22;7534;50.762;7.000;2023-06-22T12:05:59;26.30;99.90
14884;DHT22;7534;50.762;7.000;2023-06-22T12:08:25;26.10;99.90
14884;DHT22;7534;50.762;7.000;2023-06-22T12:10:51;26.10;99.90
14884;DHT22;7534;50.762;7.000;2023-06-22T12:13:24;26.10;99.90
14884;DHT22;7534;50.762;7.000;2023-06-22T12:15:49;26.10;99.90
14884;DHT22;7534;50.762;7.000;2023-06-22T12:18:17;25.70;99.90
14884;DHT22;7534;50.762;7.000;2023-06-22T12:20:46;25.80;99.90
14884;DHT22;7534;50.762;7.000;2023-06-22T12:23:13;25.80;99.90
14884;DHT22;7534;50.762;7.000;2023-06-22T12:25:40;25.80;99.90
14884;DHT22;7534;50.762;7.000;2023-06-22T12:28:06;26.10;99.90
14884;DHT22;7534;50.762;7.000;2023-06-22T12:30:35;26.40;99.90
14884;DHT22;7534;50.762;7.000;2023-06-22T12:33:00;27.10;99.90
14884;DHT22;7534;50.762;7.000;2023-06-22T12:35:26;27.30;99.90
14884;DHT22;7534;50.762;7.000;2023-06-22T12:37:52;27.50;99.90
14884;DHT22;7534;50.762;7.000;2023-06-22T12:40:18;28.00;99.90
14884;DHT22;7534;50.762;7.000;2023-06-22T12:42:45;27.90;99.90
14884;DHT22;7534;50.762;7.000;2023-06-22T12:45:11;28.10;99.90
14884;DHT22;7534;50.762;7.000;2023-06-22T12:47:36;28.00;99.90
14884;DHT22;7534;50.762;7.000;2023-06-22T12:50:02;28.20;99.90
14884;DHT22;7534;50.762;7.000;2023-06-22T12:52:30;28.60;99.90
14884;DHT22;7534;50.762;7.000;2023-06-22T12:54:59;28.90;99.90
14884;DHT22;7534;50.762;7.000;2023-06-22T12:57:24;29.00;99.90
14884;DHT22;7534;50.762;7.000;2023-06-22T12:59:51;28.80;99.90
14884;DHT22;7534;50.762;7.000;2023-06-22T13:02:16;28.60;99.90
14884;DHT22;7534;50.762;7.000;2023-06-22T13:04:42;28.50;99.90
14884;DHT22;7534;50.762;7.000;2023-06-22T13:07:08;28.30;99.90
14884;DHT22;7534;50.762;7.000;2023-06-22T13:09:36;28.80;99.90
14884;DHT22;7534;50.762;7.000;2023-06-22T13:12:02;28.90;99.90
14884;DHT22;7534;50.762;7.000;2023-06-22T13:14:28;28.90;99.50
14884;DHT22;7534;50.762;7.000;2023-06-22T13:16:54;29.20;98.80
14884;DHT22;7534;50.762;7.000;2023-06-22T13:19:19;29.50;97.40
14884;DHT22;7534;50.762;7.000;2023-06-22T13:21:45;29.70;97.70
14884;DHT22;7534;50.762;7.000;2023-06-22T13:24:11;30.00;96.70
14884;DHT22;7534;50.762;7.000;2023-06-22T13:26:36;30.30;95.50
14884;DHT22;7534;50.762;7.000;2023-06-22T13:29:02;30.30;96.40
14884;DHT22;7534;50.762;7.000;2023-06-22T13:31:28;30.30;97.10
14884;DHT22;7534;50.762;7.000;2023-06-22T13:33:53;30.40;94.40
14884;DHT22;7534;50.762;7.000;2023-06-22T13:36:19;30.30;94.90
14884;DHT22;7534;50.762;7.000;2023-06-22T13:38:45;30.70;94.20
14884;DHT22;7534;50.762;7.000;2023-06-22T13:41:11;30.50;93.50
14884;DHT22;7534;50.762;7.000;2023-06-22T13:43:36;30.90;92.30
14884;DHT22;7534;50.762;7.000;2023-06-22T13:46:02;31.20;91.80
14884;DHT22;7534;50.762;7.000;2023-06-22T13:48:28;31.10;92.50
14884;DHT22;7534;50.762;7.000;2023-06-22T13:50:54;31.10;91.80
14884;DHT22;7534;50.762;7.000;2023-06-22T13:53:20;30.50;92.50
14884;DHT22;7534;50.762;7.000;2023-06-22T13:55:46;30.50;94.50
14884;DHT22;7534;50.762;7.000;2023-06-22T13:58:13;29.90;92.80
14884;DHT22;7534;50.762;7.000;2023-06-22T14:00:38;29.40;93.70
14884;DHT22;7534;50.762;7.000;2023-06-22T14:03:04;29.40;94.90
14884;DHT22;7534;50.762;7.000;2023-06-22T14:05:30;29.50;96.30
14884;DHT22;7534;50.762;7.000;2023-06-22T14:07:56;29.30;96.60
14884;DHT22;7534;50.762;7.000;2023-06-22T14:10:21;28.90;96.90
14884;DHT22;7534;50.762;7.000;2023-06-22T14:12:47;29.00;97.00
14884;DHT22;7534;50.762;7.000;2023-06-22T14:15:13;28.90;97.50
14884;DHT22;7534;50.762;7.000;2023-06-22T14:17:38;28.70;97.70
14884;DHT22;7534;50.762;7.000;2023-06-22T14:20:05;28.90;98.20
14884;DHT22;7534;50.762;7.000;2023-06-22T14:22:33;28.80;98.10
14884;DHT22;7534;50.762;7.000;2023-06-22T14:25:01;28.70;98.10
14884;DHT22;7534;50.762;7.000;2023-06-22T14:27:27;28.50;98.60
14884;DHT22;7534;50.762;7.000;2023-06-22T14:29:52;28.40;98.20
14884;DHT22;7534;50.762;7.000;2023-06-22T14:32:18;28.30;98.60
14884;DHT22;7534;50.762;7.000;2023-06-22T14:34:44;28.00;99.70
14884;DHT22;7534;50.762;7.000;2023-06-22T14:37:10;27.70;99.90
14884;DHT22;7534;50.762;7.000;2023-06-22T14:39:36;27.40;99.90
14884;DHT22;7534;50.762;7.000;2023-06-22T14:42:02;27.00;99.90
14884;DHT22;7534;50.762;7.000;2023-06-22T14:44:29;26.50;99.90
14884;DHT22;7534;50.762;7.000;2023-06-22T14:46:55;26.20;99.90
14884;DHT22;7534;50.762;7.000;2023-06-22T14:49:21;26.00;99.90
14884;DHT22;7534;50.762;7.000;2023-06-22T14:51:47;25.70;99.90
14884;DHT22;7534;50.762;7.000;2023-06-22T14:54:13;25.30;99.90
14884;DHT22;7534;50.762;7.000;2023-06-22T14:56:39;24.90;99.90
14884;DHT22;7534;50.762;7.000;2023-06-22T14:59:05;24.80;99.90
14884;DHT22;7534;50.762;7.000;2023-06-22T15:01:30;24.50;99.90
14884;DHT22;7534;50.762;7.000;2023-06-22T15:03:56;24.10;99.90
14884;DHT22;7534;50.762;7.000;2023-06-22T15:06:22;23.80;99.90
14884;DHT22;7534;50.762;7.000;2023-06-22T15:08:47;23.30;99.90
14884;DHT22;7534;50.762;7.000;2023-06-22T15:11:13;22.90;99.90
14884;DHT22;7534;50.762;7.000;2023-06-22T15:13:40;22.70;99.90
14884;DHT22;7534;50.762;7.000;2023-06-22T15:16:07;22.60;99.90
14884;DHT22;7534;50.762;7.000;2023-06-22T15:18:37;22.60;99.90
14884;DHT22;7534;50.762;7.000;2023-06-22T15:21:04;22.50;99.90
14884;DHT22;7534;50.762;7.000;2023-06-22T15:23:30;22.40;99.90
14884;DHT22;7534;50.762;7.000;2023-06-22T15:25:57;22.40;99.90
14884;DHT22;7534;50.762;7.000;2023-06-22T15:28:24;22.30;99.90
14884;DHT22;7534;50.762;7.000;2023-06-22T15:30:51;22.30;99.90
14884;DHT22;7534;50.762;7.000;2023-06-22T15:33:18;22.40;99.90
14884;DHT22;7534;50.762;7.000;2023-06-22T15:35:44;22.40;99.90
14884;DHT22;7534;50.762;7.000;2023-06-22T15:38:09;22.40;99.90
14884;DHT22;7534;50.762;7.000;2023-06-22T15:40:35;22.40;99.90
14884;DHT22;7534;50.762;7.000;2023-06-22T15:43:01;22.40;99.90
14884;DHT22;7534;50.762;7.000;2023-06-22T15:45:27;22.50;99.90
14884;DHT22;7534;50.762;7.000;2023-06-22T15:47:54;22.50;99.90